createdAt,value
2022-09-25T00:01:35.453Z,9.55
2022-09-25T00:04:23.004Z,11.48
2022-09-25T00:07:10.449Z,10.73
2022-09-25T00:09:57.864Z,9.63
2022-09-25T00:12:45.379Z,14.45
2022-09-25T00:15:33.147Z,12.27
2022-09-25T00:18:38.175Z,11.90
2022-09-25T00:21:31.537Z,10.68
2022-09-25T00:24:19.810Z,10.00
2022-09-25T00:27:09.696Z,11.43
2022-09-25T00:29:57.770Z,10.95
2022-09-25T00:32:45.226Z,8.32
2022-09-25T00:35:35.264Z,7.95
2022-09-25T00:38:23.080Z,10.60
2022-09-25T00:41:10.629Z,6.88
2022-09-25T00:44:00.319Z,11.82
2022-09-25T00:46:48.233Z,11.88
2022-09-25T00:49:35.730Z,8.50
2022-09-25T00:52:26.803Z,10.00
2022-09-25T00:55:15.995Z,9.57
2022-09-25T00:58:07.227Z,9.88
2022-09-25T01:00:55.191Z,11.00
2022-09-25T01:03:46.425Z,9.85
2022-09-25T01:06:36.321Z,10.00
2022-09-25T01:09:26.157Z,10.10
2022-09-25T01:12:13.956Z,10.93
2022-09-25T01:15:01.661Z,9.93
2022-09-25T01:18:03.404Z,9.32
2022-09-25T01:21:32.109Z,14.52
2022-09-25T01:24:54.701Z,10.27
2022-09-25T01:28:09.052Z,13.57
2022-09-25T01:31:09.968Z,13.20
2022-09-25T01:34:07.241Z,10.43
2022-09-25T01:37:05.395Z,10.05
2022-09-25T01:40:04.838Z,10.45
2022-09-25T01:43:01.596Z,13.50
2022-09-25T01:45:56.790Z,11.43
2022-09-25T01:48:53.339Z,9.30
2022-09-25T01:51:46.678Z,8.82
2022-09-25T01:54:41.608Z,11.02
2022-09-25T01:57:39.075Z,13.80
2022-09-25T02:00:27.763Z,10.57
2022-09-25T02:03:26.486Z,11.93
2022-09-25T02:06:21.871Z,13.73
2022-09-25T02:09:18.430Z,14.30
2022-09-25T02:12:14.795Z,16.65
2022-09-25T02:15:09.979Z,9.70
2022-09-25T02:18:28.411Z,7.85
2022-09-25T02:21:30.407Z,11.65
2022-09-25T02:24:26.117Z,12.63
2022-09-25T02:27:14.764Z,6.65
2022-09-25T02:30:02.607Z,11.63
2022-09-25T02:32:50.195Z,12.35
2022-09-25T02:35:38.459Z,8.55
2022-09-25T02:38:28.001Z,13.15
2022-09-25T02:41:33.709Z,12.75
2022-09-25T02:44:36.774Z,10.00
2022-09-25T02:47:36.746Z,13.07
2022-09-25T02:50:31.508Z,14.25
2022-09-25T02:53:34.527Z,13.00
2022-09-25T02:56:34.109Z,13.07
2022-09-25T02:59:29.951Z,12.63
2022-09-25T03:02:18.502Z,12.77
2022-09-25T03:05:08.700Z,16.00
2022-09-25T03:08:13.874Z,14.40
2022-09-25T03:11:04.348Z,11.90
2022-09-25T03:13:59.059Z,13.93
2022-09-25T03:16:51.378Z,16.63
2022-09-25T03:19:39.337Z,8.68
2022-09-25T03:22:27.038Z,14.82
2022-09-25T03:25:16.124Z,14.55
2022-09-25T03:28:13.283Z,15.15
2022-09-25T03:31:04.058Z,16.70
2022-09-25T03:33:52.164Z,17.00
2022-09-25T03:36:40.655Z,15.50
2022-09-25T03:39:28.284Z,15.15
2022-09-25T03:42:15.878Z,15.13
2022-09-25T03:45:04.880Z,13.70
2022-09-25T03:47:52.697Z,12.85
2022-09-25T03:50:40.415Z,15.95
2022-09-25T03:53:31.210Z,14.93
2022-09-25T03:56:22.842Z,16.65
2022-09-25T03:59:10.660Z,13.50
2022-09-25T04:01:59.725Z,18.17
2022-09-25T04:04:47.170Z,16.25
2022-09-25T04:07:34.706Z,14.43
2022-09-25T04:10:23.539Z,10.55
2022-09-25T04:13:12.859Z,12.90
2022-09-25T04:16:03.544Z,12.18
2022-09-25T04:18:52.583Z,15.93
2022-09-25T04:21:40.456Z,16.77
2022-09-25T04:24:42.039Z,12.25
2022-09-25T04:27:30.560Z,16.75
2022-09-25T04:30:17.946Z,15.52
2022-09-25T04:33:25.129Z,13.88
2022-09-25T04:36:14.666Z,15.20
2022-09-25T04:39:07.658Z,15.93
2022-09-25T04:41:55.624Z,14.07
2022-09-25T04:44:43.235Z,14.18
2022-09-25T04:47:34.514Z,15.57
2022-09-25T04:50:24.957Z,11.10
2022-09-25T04:53:14.654Z,17.80
2022-09-25T04:56:05.402Z,13.43
2022-09-25T04:58:53.143Z,18.90
2022-09-25T05:01:43.902Z,11.63
2022-09-25T05:04:32.049Z,17.70
2022-09-25T05:07:19.726Z,16.10
2022-09-25T05:10:09.852Z,15.60
2022-09-25T05:13:02.740Z,15.95
2022-09-25T05:15:55.407Z,15.55
2022-09-25T05:18:47.660Z,13.32
2022-09-25T05:21:35.403Z,13.27
2022-09-25T05:24:23.231Z,15.95
2022-09-25T05:27:16.017Z,15.43
2022-09-25T05:30:03.798Z,14.52
2022-09-25T05:32:52.434Z,16.63
2022-09-25T05:35:42.392Z,12.35
2022-09-25T05:38:30.296Z,12.05
2022-09-25T05:41:18.758Z,13.90
2022-09-25T05:44:09.708Z,15.27
2022-09-25T05:46:57.593Z,14.85
2022-09-25T05:49:45.098Z,14.35
2022-09-25T05:52:32.735Z,16.50
2022-09-25T05:55:20.486Z,16.08
2022-09-25T05:58:08.214Z,17.60
2022-09-25T06:01:01.327Z,17.85
2022-09-25T06:03:48.801Z,16.40
2022-09-25T06:06:36.118Z,15.52
2022-09-25T06:09:23.737Z,17.45
2022-09-25T06:12:11.235Z,16.45
2022-09-25T06:14:58.832Z,17.48
2022-09-25T06:17:47.746Z,18.05
2022-09-25T06:20:35.788Z,17.10
2022-09-25T06:23:27.137Z,17.63
2022-09-25T06:26:14.571Z,17.55
2022-09-25T06:29:03.916Z,15.60
2022-09-25T06:31:53.093Z,18.05
2022-09-25T06:34:44.477Z,16.73
2022-09-25T06:37:32.429Z,14.98
2022-09-25T06:40:20.323Z,17.83
2022-09-25T06:43:12.468Z,16.20
2022-09-25T06:46:04.100Z,16.75
2022-09-25T06:48:57.886Z,17.50
2022-09-25T06:51:47.032Z,16.27
2022-09-25T06:54:39.456Z,18.52
2022-09-25T06:57:32.466Z,14.13
2022-09-25T07:00:20.248Z,17.00
2022-09-25T07:03:25.615Z,19.35
2022-09-25T07:06:16.707Z,16.77
2022-09-25T07:09:05.816Z,19.55
2022-09-25T07:11:53.253Z,20.25
2022-09-25T07:14:41.947Z,19.30
2022-09-25T07:17:29.539Z,20.88
2022-09-25T07:20:17.320Z,20.55
2022-09-25T07:23:04.751Z,19.77
2022-09-25T07:25:56.509Z,20.88
2022-09-25T07:28:45.636Z,22.40
2022-09-25T07:31:37.805Z,21.00
2022-09-25T07:34:25.610Z,21.58
2022-09-25T07:37:13.005Z,19.70
2022-09-25T07:40:00.594Z,17.52
2022-09-25T07:42:49.548Z,19.77
2022-09-25T07:45:37.155Z,20.90
2022-09-25T07:48:54.347Z,20.40
2022-09-25T07:51:42.452Z,20.83
2022-09-25T07:54:30.512Z,18.20
2022-09-25T07:57:20.503Z,19.67
2022-09-25T08:00:11.490Z,20.02
2022-09-25T08:03:00.389Z,18.83
2022-09-25T08:05:47.909Z,19.15
2022-09-25T08:08:36.104Z,17.33
2022-09-25T08:11:51.844Z,19.25
2022-09-25T08:14:39.805Z,18.83
2022-09-25T08:17:31.280Z,18.58
2022-09-25T08:20:43.698Z,19.02
2022-09-25T08:23:38.566Z,16.58
2022-09-25T08:26:29.354Z,18.25
2022-09-25T08:29:20.989Z,19.70
2022-09-25T08:32:09.540Z,19.17
2022-09-25T08:34:59.744Z,19.40
2022-09-25T08:37:48.696Z,19.65
2022-09-25T08:44:39.932Z,15.90
2022-09-25T08:47:46.559Z,15.90
2022-09-25T08:50:37.416Z,17.60
2022-09-25T08:53:26.718Z,15.93
2022-09-25T08:56:24.071Z,16.42
2022-09-25T08:59:23.801Z,18.25
2022-09-25T09:02:39.771Z,21.42
2022-09-25T09:05:39.412Z,24.00
2022-09-25T09:08:34.975Z,22.08
2022-09-25T09:11:29.817Z,16.88
2022-09-25T09:14:21.059Z,18.42
2022-09-25T09:17:19.880Z,20.33
2022-09-25T09:20:20.237Z,18.65
2022-09-25T09:23:20.155Z,19.02
2022-09-25T09:26:16.230Z,16.85
2022-09-25T09:29:30.063Z,16.80
2022-09-25T09:32:46.077Z,14.95
2022-09-25T09:35:41.862Z,15.85
2022-09-25T09:38:42.921Z,15.00
2022-09-25T09:41:46.777Z,15.65
2022-09-25T09:44:52.320Z,16.17
2022-09-25T09:47:47.940Z,14.90
2022-09-25T09:50:44.545Z,15.93
2022-09-25T09:53:43.578Z,15.43
2022-09-25T09:56:35.441Z,16.75
2022-09-25T09:59:29.365Z,16.48
2022-09-25T10:02:36.542Z,14.40
2022-09-25T10:05:28.686Z,14.00
2022-09-25T10:08:17.485Z,9.27
2022-09-25T10:11:13.377Z,12.18
2022-09-25T10:14:05.282Z,11.65
2022-09-25T10:16:54.869Z,13.43
2022-09-25T10:19:50.290Z,12.27
2022-09-25T10:22:41.679Z,12.75
2022-09-25T10:25:38.514Z,12.35
2022-09-25T10:28:34.380Z,11.88
2022-09-25T10:31:22.928Z,9.30
2022-09-25T10:34:24.130Z,11.88
2022-09-25T10:37:21.969Z,10.10
2022-09-25T10:40:25.401Z,11.05
2022-09-25T10:43:20.446Z,10.43
2022-09-25T10:46:40.174Z,8.00
2022-09-25T10:49:48.884Z,11.75
2022-09-25T10:52:51.260Z,10.95
2022-09-25T10:55:44.436Z,11.63
2022-09-25T10:58:37.669Z,11.73
2022-09-25T11:01:35.413Z,7.57
2022-09-25T11:04:28.002Z,4.15
2022-09-25T11:07:27.271Z,2.90
2022-09-25T11:10:23.411Z,3.20
2022-09-25T11:13:24.626Z,2.70
2022-09-25T11:16:13.112Z,3.00
2022-09-25T11:19:19.909Z,3.08
2022-09-25T11:22:26.060Z,2.90
2022-09-25T11:25:22.471Z,3.38
2022-09-25T11:28:22.306Z,3.08
2022-09-25T11:31:22.505Z,3.83
2022-09-25T11:34:27.178Z,4.40
2022-09-25T11:37:25.003Z,4.10
2022-09-25T11:40:52.033Z,3.30
2022-09-25T11:44:09.580Z,2.92
2022-09-25T11:47:07.901Z,3.88
2022-09-25T11:50:02.084Z,3.30
2022-09-25T11:53:05.000Z,3.60
2022-09-25T11:59:19.125Z,3.63
2022-09-25T12:02:25.551Z,3.17
2022-09-25T12:05:58.527Z,3.08
2022-09-25T12:09:07.814Z,3.58
2022-09-25T12:12:05.056Z,3.97
2022-09-25T12:15:06.746Z,4.78
2022-09-25T12:18:07.736Z,3.63
2022-09-25T12:21:04.314Z,3.60
2022-09-25T12:24:00.220Z,3.30
2022-09-25T12:27:01.245Z,3.35
2022-09-25T12:30:11.753Z,3.05
2022-09-25T12:33:24.950Z,3.20
2022-09-25T12:36:22.443Z,3.25
2022-09-25T12:39:40.459Z,3.47
2022-09-25T12:42:44.676Z,3.45
2022-09-25T12:45:40.812Z,3.40
2022-09-25T12:48:38.957Z,3.50
2022-09-25T12:51:40.473Z,3.47
2022-09-25T12:54:34.595Z,3.55
2022-09-25T12:57:28.742Z,8.98
2022-09-25T13:00:22.997Z,6.68
2022-09-25T13:03:19.141Z,4.90
2022-09-25T13:06:21.910Z,4.43
2022-09-25T13:09:25.999Z,5.00
2022-09-25T13:12:34.184Z,4.43
2022-09-25T13:15:27.088Z,4.10
2022-09-25T13:21:30.111Z,4.40
2022-09-25T13:24:21.439Z,4.20
2022-09-25T13:27:18.919Z,4.05
2022-09-25T13:30:08.149Z,3.45
2022-09-25T13:33:01.214Z,3.80
2022-09-25T13:35:48.780Z,3.47
2022-09-25T13:39:03.701Z,3.92
2022-09-25T13:41:57.880Z,4.18
2022-09-25T13:45:07.754Z,3.83
2022-09-25T13:48:07.123Z,3.22
2022-09-25T13:51:36.623Z,3.25
2022-09-25T13:54:29.183Z,3.47
2022-09-25T13:57:16.897Z,3.13
2022-09-25T14:00:06.762Z,4.00
2022-09-25T14:03:00.962Z,4.88
2022-09-25T14:05:48.721Z,3.78
2022-09-25T14:08:43.759Z,3.70
2022-09-25T14:11:37.737Z,3.63
2022-09-25T14:14:33.848Z,3.75
2022-09-25T14:17:26.051Z,4.45
2022-09-25T14:20:34.267Z,4.90
2022-09-25T14:23:29.878Z,4.45
2022-09-25T14:26:23.266Z,4.90
2022-09-25T14:29:18.533Z,5.38
2022-09-25T14:32:50.707Z,4.57
2022-09-25T14:35:45.390Z,5.60
2022-09-25T14:39:07.515Z,5.05
2022-09-25T14:42:25.529Z,4.35
2022-09-25T14:45:48.191Z,4.75
2022-09-25T14:48:43.020Z,4.15
2022-09-25T14:51:40.375Z,4.90
2022-09-25T14:54:59.163Z,4.70
2022-09-25T14:57:51.098Z,7.65
2022-09-25T15:00:48.226Z,6.43
2022-09-25T15:03:44.278Z,4.60
2022-09-25T15:06:39.079Z,5.50
2022-09-25T15:09:36.111Z,5.20
2022-09-25T15:12:29.280Z,4.95
2022-09-25T15:15:18.623Z,5.72
2022-09-25T15:18:12.315Z,5.85
2022-09-25T15:21:08.645Z,5.32
2022-09-25T15:24:02.717Z,6.82
2022-09-25T15:26:54.791Z,6.20
2022-09-25T15:29:46.977Z,6.80
2022-09-25T15:32:40.889Z,5.80
2022-09-25T15:35:29.972Z,6.10
2022-09-25T15:38:18.468Z,5.88
2022-09-25T15:41:10.412Z,7.35
2022-09-25T15:44:15.262Z,7.53
2022-09-25T15:47:03.447Z,8.60
2022-09-25T15:49:52.328Z,12.10
2022-09-25T15:52:40.324Z,12.95
2022-09-25T15:55:32.646Z,6.18
2022-09-25T15:58:22.073Z,8.75
2022-09-25T16:01:33.542Z,6.38
2022-09-25T16:04:42.392Z,8.65
2022-09-25T16:07:35.512Z,8.10
2022-09-25T16:10:34.290Z,14.77
2022-09-25T16:13:25.716Z,10.35
2022-09-25T16:16:21.561Z,6.68
2022-09-25T16:19:30.683Z,6.80
2022-09-25T16:22:24.644Z,6.50
2022-09-25T16:25:25.864Z,6.00
2022-09-25T16:28:20.736Z,7.88
2022-09-25T16:31:11.243Z,7.43
2022-09-25T16:34:01.090Z,6.80
2022-09-25T16:36:51.452Z,5.50
2022-09-25T16:39:40.527Z,8.88
2022-09-25T16:42:39.422Z,8.38
2022-09-25T16:45:31.266Z,6.78
2022-09-25T16:48:37.325Z,6.60
2022-09-25T16:51:27.286Z,7.10
2022-09-25T16:54:18.625Z,6.95
2022-09-25T16:57:06.503Z,8.07
2022-09-25T16:59:55.316Z,6.78
2022-09-25T17:02:46.133Z,7.03
2022-09-25T17:05:36.033Z,6.50
2022-09-25T17:08:25.089Z,7.50
2022-09-25T17:11:14.073Z,5.90
2022-09-25T17:14:01.674Z,7.78
2022-09-25T17:16:50.574Z,9.93
2022-09-25T17:19:38.075Z,8.43
2022-09-25T17:22:29.970Z,8.77
2022-09-25T17:25:38.777Z,8.77
2022-09-25T17:28:26.068Z,11.02
2022-09-25T17:31:16.683Z,9.45
2022-09-25T17:34:17.468Z,7.47
2022-09-25T17:37:05.352Z,6.95
2022-09-25T17:39:52.954Z,6.00
2022-09-25T17:42:40.406Z,5.82
2022-09-25T17:45:36.839Z,5.80
2022-09-25T17:48:27.458Z,6.47
2022-09-25T17:51:21.662Z,6.60
2022-09-25T17:54:11.891Z,6.93
2022-09-25T17:56:59.480Z,6.15
2022-09-25T17:59:47.019Z,6.88
2022-09-25T18:02:34.856Z,7.95
2022-09-25T18:05:31.873Z,7.28
2022-09-25T18:08:21.290Z,6.78
2022-09-25T18:11:13.114Z,6.75
2022-09-25T18:14:01.977Z,7.53
2022-09-25T18:16:51.119Z,14.15
2022-09-25T18:19:56.364Z,8.60
2022-09-25T18:22:44.566Z,8.48
2022-09-25T18:25:40.305Z,7.30
2022-09-25T18:28:30.917Z,8.45
2022-09-25T18:31:19.119Z,8.02
2022-09-25T18:34:07.003Z,7.50
2022-09-25T18:36:54.274Z,9.43
2022-09-25T18:39:41.801Z,9.43
2022-09-25T18:42:30.665Z,7.50
2022-09-25T18:45:19.884Z,7.50
2022-09-25T18:48:07.542Z,6.82
2022-09-25T18:50:55.229Z,6.90
2022-09-25T18:53:42.826Z,5.95
2022-09-25T18:56:31.791Z,6.55
2022-09-25T18:59:20.461Z,7.03
2022-09-25T19:02:20.610Z,6.32
2022-09-25T19:05:09.567Z,5.80
2022-09-25T19:07:57.328Z,5.50
2022-09-25T19:10:44.852Z,5.93
2022-09-25T19:13:32.373Z,5.60
2022-09-25T19:16:22.578Z,5.10
2022-09-25T19:19:11.292Z,5.13
2022-09-25T19:21:59.428Z,5.50
2022-09-25T19:24:48.026Z,5.07
2022-09-25T19:27:35.870Z,5.07
2022-09-25T19:30:24.048Z,5.07
2022-09-25T19:33:14.454Z,8.32
2022-09-25T19:36:06.226Z,5.85
2022-09-25T19:38:56.080Z,7.85
2022-09-25T19:41:44.924Z,7.05
2022-09-25T19:44:32.566Z,9.15
2022-09-25T19:47:23.083Z,8.10
2022-09-25T19:50:12.654Z,8.48
2022-09-25T19:53:01.332Z,8.02
2022-09-25T19:55:54.752Z,9.27
2022-09-25T19:58:43.846Z,7.72
2022-09-25T20:01:31.375Z,8.23
2022-09-25T20:04:19.346Z,6.93
2022-09-25T20:07:08.646Z,5.50
2022-09-25T20:09:58.755Z,5.53
2022-09-25T20:12:46.370Z,5.03
2022-09-25T20:15:35.256Z,4.32
2022-09-25T20:18:26.233Z,4.50
2022-09-25T20:21:15.314Z,4.22
2022-09-25T20:24:10.351Z,4.47
2022-09-25T20:26:58.180Z,5.13
2022-09-25T20:29:46.251Z,4.72
2022-09-25T20:32:34.693Z,4.43
2022-09-25T20:35:22.654Z,3.63
2022-09-25T20:38:11.059Z,4.03
2022-09-25T20:41:02.398Z,6.22
2022-09-25T20:43:52.274Z,3.70
2022-09-25T20:46:39.848Z,3.80
2022-09-25T20:49:27.202Z,4.53
2022-09-25T20:52:15.154Z,4.60
2022-09-25T20:55:02.780Z,4.47
2022-09-25T20:57:51.887Z,4.15
2022-09-25T21:00:39.569Z,4.30
2022-09-25T21:03:30.536Z,4.00
2022-09-25T21:06:20.922Z,4.45
2022-09-25T21:09:21.679Z,4.38
2022-09-25T21:12:09.136Z,4.28
2022-09-25T21:14:57.895Z,4.13
2022-09-25T21:17:45.645Z,4.50
2022-09-25T21:20:36.796Z,4.70
2022-09-25T21:23:24.621Z,5.60
2022-09-25T21:26:14.641Z,4.78
2022-09-25T21:29:05.851Z,4.00
2022-09-25T21:31:55.267Z,4.50
2022-09-25T21:34:42.650Z,5.10
2022-09-25T21:37:30.138Z,4.75
2022-09-25T21:40:18.255Z,5.65
2022-09-25T21:43:06.087Z,4.78
2022-09-25T21:45:53.774Z,5.05
2022-09-25T21:48:49.239Z,4.60
2022-09-25T21:51:40.226Z,5.25
2022-09-25T21:54:28.396Z,4.72
2022-09-25T21:57:15.901Z,4.90
2022-09-25T22:00:06.226Z,4.60
2022-09-25T22:02:53.560Z,4.88
2022-09-25T22:05:42.462Z,4.70
2022-09-25T22:08:30.924Z,4.35
2022-09-25T22:11:20.193Z,4.72
2022-09-25T22:14:13.328Z,5.57
2022-09-25T22:17:03.527Z,5.07
2022-09-25T22:19:51.168Z,5.25
2022-09-25T22:22:39.979Z,4.10
2022-09-25T22:25:28.000Z,4.28
2022-09-25T22:28:15.702Z,4.30
2022-09-25T22:31:07.024Z,4.40
2022-09-25T22:33:57.573Z,3.80
2022-09-25T22:36:45.439Z,3.95
2022-09-25T22:39:34.636Z,4.18
2022-09-25T22:42:24.472Z,3.80
2022-09-25T22:45:12.351Z,4.00
2022-09-25T22:48:01.267Z,3.90
2022-09-25T22:50:55.576Z,3.95
2022-09-25T22:53:45.117Z,4.15
2022-09-25T22:56:36.279Z,3.88
2022-09-25T22:59:23.755Z,3.85
2022-09-25T23:02:11.156Z,3.63
2022-09-25T23:05:01.665Z,4.18
2022-09-25T23:07:53.419Z,3.92
2022-09-25T23:11:05.536Z,3.75
2022-09-25T23:13:51.197Z,3.67
2022-09-25T23:16:39.334Z,3.90
2022-09-25T23:19:27.383Z,4.22
2022-09-25T23:22:14.756Z,3.83
2022-09-25T23:25:02.139Z,3.83
2022-09-25T23:27:49.658Z,3.63
2022-09-25T23:30:38.527Z,3.58
2022-09-25T23:33:26.036Z,3.70
2022-09-25T23:36:18.402Z,3.80
2022-09-25T23:39:11.435Z,3.63
2022-09-25T23:41:59.304Z,3.90
2022-09-25T23:44:49.535Z,4.13
2022-09-25T23:47:43.219Z,3.85
2022-09-25T23:50:33.599Z,4.38
2022-09-25T23:53:21.106Z,3.67
2022-09-25T23:56:13.863Z,4.03
2022-09-25T23:59:03.358Z,3.92
